AEE316 LGAV-LGIR
Flight info
| Callsign | AEE316 |
|---|---|
| Flight time | 0h 31m |
| Altitude | 27000 |
| Route | KEA UL607 GIVIS T514 XAVIS |
| Aircraft | A320/M-SDE3FGHIRWY/LB1 |
Departure
| Time | 2026-05-05 10:22 |
|---|---|
| Airport | Athens Eleftherios Venizelos International Airport (LGAV) |
Arrival
| Time | 2026-05-05 10:53 |
|---|---|
| Airport | Heraklion International Nikos Kazantzakis Airport (LGIR) |
| Time | Latitude | Longitude | Altitude | Speed | Heading |
|---|---|---|---|---|---|
| 2026-05-05 10:12 | 37.93047 | 23.94278 | 323 ft | 0 kts | 37° |
| 2026-05-05 10:14 | 37.93332 | 23.94572 | 322 ft | 0 kts | 306° |
| 2026-05-05 10:15 | 37.93325 | 23.94583 | 322 ft | 2 kts | 306° |
| 2026-05-05 10:15 | 37.93314 | 23.94601 | 322 ft | 3 kts | 306° |
| 2026-05-05 10:16 | 37.93302 | 23.94622 | 322 ft | 3 kts | 306° |
| 2026-05-05 10:16 | 37.93290 | 23.94643 | 322 ft | 3 kts | 306° |
| 2026-05-05 10:16 | 37.93281 | 23.94659 | 322 ft | 1 kts | 335° |
| 2026-05-05 10:16 | 37.93280 | 23.94660 | 322 ft | 0 kts | 339° |
| 2026-05-05 10:18 | 37.93283 | 23.94659 | 322 ft | 1 kts | 339° |
| 2026-05-05 10:19 | 37.93292 | 23.94663 | 322 ft | 3 kts | 49° |
| 2026-05-05 10:19 | 37.93329 | 23.94724 | 322 ft | 14 kts | 73° |
| 2026-05-05 10:19 | 37.93266 | 23.94771 | 322 ft | 14 kts | 213° |
| 2026-05-05 10:19 | 37.93183 | 23.94693 | 322 ft | 16 kts | 217° |
| 2026-05-05 10:20 | 37.93084 | 23.94646 | 322 ft | 16 kts | 143° |
| 2026-05-05 10:20 | 37.92984 | 23.94647 | 322 ft | 16 kts | 214° |
| 2026-05-05 10:20 | 37.92886 | 23.94557 | 322 ft | 19 kts | 216° |
| 2026-05-05 10:20 | 37.92772 | 23.94456 | 322 ft | 21 kts | 217° |
| 2026-05-05 10:21 | 37.92651 | 23.94337 | 322 ft | 22 kts | 217° |
| 2026-05-05 10:21 | 37.92539 | 23.94318 | 322 ft | 15 kts | 122° |
| 2026-05-05 10:21 | 37.92484 | 23.94436 | 322 ft | 14 kts | 91° |
| 2026-05-05 10:21 | 37.92523 | 23.94488 | 322 ft | 10 kts | 35° |
| 2026-05-05 10:22 | 37.92740 | 23.94694 | 322 ft | 76 kts | 37° |
| 2026-05-05 10:22 | 37.93364 | 23.95286 | 323 ft | 145 kts | 38° |
| 2026-05-05 10:22 | 37.94240 | 23.96125 | 671 ft | 165 kts | 39° |
| 2026-05-05 10:22 | 37.95158 | 23.97009 | 1438 ft | 165 kts | 40° |
| 2026-05-05 10:23 | 37.96065 | 23.97882 | 2165 ft | 166 kts | 38° |
| 2026-05-05 10:23 | 37.97031 | 23.98810 | 2556 ft | 182 kts | 38° |
| 2026-05-05 10:23 | 37.98080 | 23.99816 | 2973 ft | 197 kts | 37° |
| 2026-05-05 10:23 | 37.99095 | 24.01069 | 3384 ft | 215 kts | 58° |
| 2026-05-05 10:24 | 37.99503 | 24.02964 | 3840 ft | 235 kts | 90° |
| 2026-05-05 10:24 | 37.99182 | 24.05064 | 4416 ft | 252 kts | 109° |
| 2026-05-05 10:24 | 37.98203 | 24.06943 | 4985 ft | 271 kts | 139° |
| 2026-05-05 10:24 | 37.96569 | 24.08187 | 5764 ft | 277 kts | 153° |
| 2026-05-05 10:25 | 37.94812 | 24.09240 | 6599 ft | 282 kts | 153° |
| 2026-05-05 10:25 | 37.93045 | 24.10357 | 7396 ft | 286 kts | 150° |
| 2026-05-05 10:25 | 37.91281 | 24.11571 | 8184 ft | 291 kts | 149° |
| 2026-05-05 10:25 | 37.89496 | 24.12824 | 8953 ft | 295 kts | 149° |
| 2026-05-05 10:26 | 37.87677 | 24.14075 | 9708 ft | 300 kts | 149° |
| 2026-05-05 10:26 | 37.85830 | 24.15263 | 10424 ft | 305 kts | 154° |
| 2026-05-05 10:26 | 37.83841 | 24.16351 | 10927 ft | 319 kts | 156° |
| 2026-05-05 10:26 | 37.81724 | 24.17445 | 11190 ft | 339 kts | 156° |
| 2026-05-05 10:27 | 37.79475 | 24.18605 | 11422 ft | 358 kts | 156° |
| 2026-05-05 10:27 | 37.77122 | 24.19839 | 11689 ft | 374 kts | 156° |
| 2026-05-05 10:27 | 37.74673 | 24.21139 | 11988 ft | 388 kts | 156° |
| 2026-05-05 10:27 | 37.72142 | 24.22486 | 12247 ft | 402 kts | 156° |
| 2026-05-05 10:28 | 37.69517 | 24.23880 | 12476 ft | 415 kts | 156° |
| 2026-05-05 10:28 | 37.66862 | 24.25284 | 12892 ft | 421 kts | 156° |
| 2026-05-05 10:28 | 37.64155 | 24.26712 | 13479 ft | 422 kts | 157° |
| 2026-05-05 10:28 | 37.61435 | 24.28149 | 14007 ft | 425 kts | 157° |
| 2026-05-05 10:29 | 37.58695 | 24.29600 | 14476 ft | 429 kts | 157° |
| 2026-05-05 10:29 | 37.55928 | 24.31063 | 14958 ft | 433 kts | 157° |
| 2026-05-05 10:29 | 37.53142 | 24.32530 | 15428 ft | 436 kts | 158° |
| 2026-05-05 10:29 | 37.50332 | 24.34007 | 15880 ft | 439 kts | 158° |
| 2026-05-05 10:30 | 37.47507 | 24.35490 | 16331 ft | 442 kts | 158° |
| 2026-05-05 10:30 | 37.44656 | 24.36989 | 16766 ft | 445 kts | 158° |
| 2026-05-05 10:30 | 37.41827 | 24.38477 | 17193 ft | 448 kts | 158° |
| 2026-05-05 10:30 | 37.38937 | 24.39997 | 17621 ft | 451 kts | 158° |
| 2026-05-05 10:31 | 37.36033 | 24.41524 | 18043 ft | 454 kts | 158° |
| 2026-05-05 10:31 | 37.33110 | 24.43056 | 18457 ft | 457 kts | 158° |
| 2026-05-05 10:31 | 37.30166 | 24.44598 | 18840 ft | 460 kts | 158° |
| 2026-05-05 10:31 | 37.27205 | 24.46149 | 19232 ft | 463 kts | 158° |
| 2026-05-05 10:32 | 37.24221 | 24.47710 | 19605 ft | 466 kts | 158° |
| 2026-05-05 10:32 | 37.21220 | 24.49276 | 19979 ft | 469 kts | 158° |
| 2026-05-05 10:32 | 37.18241 | 24.50828 | 20325 ft | 472 kts | 158° |
| 2026-05-05 10:32 | 37.15209 | 24.52410 | 20686 ft | 474 kts | 158° |
| 2026-05-05 10:33 | 37.12147 | 24.54007 | 21027 ft | 477 kts | 158° |
| 2026-05-05 10:33 | 37.09076 | 24.55607 | 21363 ft | 480 kts | 158° |
| 2026-05-05 10:33 | 37.05981 | 24.57214 | 21687 ft | 483 kts | 158° |
| 2026-05-05 10:33 | 37.02871 | 24.58826 | 22009 ft | 485 kts | 158° |
| 2026-05-05 10:34 | 36.99745 | 24.60447 | 22329 ft | 488 kts | 158° |
| 2026-05-05 10:34 | 36.96602 | 24.62082 | 22638 ft | 490 kts | 158° |
| 2026-05-05 10:34 | 36.93488 | 24.63701 | 22952 ft | 493 kts | 158° |
| 2026-05-05 10:34 | 36.90314 | 24.65347 | 23227 ft | 496 kts | 158° |
| 2026-05-05 10:35 | 36.87120 | 24.67001 | 23509 ft | 498 kts | 158° |
| 2026-05-05 10:35 | 36.83909 | 24.68660 | 23808 ft | 500 kts | 158° |
| 2026-05-05 10:35 | 36.80686 | 24.70326 | 24077 ft | 503 kts | 158° |
| 2026-05-05 10:35 | 36.77443 | 24.71997 | 24397 ft | 504 kts | 159° |
| 2026-05-05 10:36 | 36.74205 | 24.73661 | 24791 ft | 503 kts | 159° |
| 2026-05-05 10:36 | 36.70971 | 24.75323 | 25067 ft | 503 kts | 159° |
| 2026-05-05 10:36 | 36.67752 | 24.76983 | 25115 ft | 499 kts | 158° |
| 2026-05-05 10:36 | 36.64586 | 24.78619 | 25116 ft | 498 kts | 159° |
| 2026-05-05 10:37 | 36.61382 | 24.80270 | 25117 ft | 498 kts | 159° |
| 2026-05-05 10:37 | 36.58178 | 24.81913 | 25116 ft | 498 kts | 159° |
| 2026-05-05 10:37 | 36.54973 | 24.83552 | 25063 ft | 497 kts | 159° |
| 2026-05-05 10:37 | 36.51801 | 24.85175 | 24778 ft | 488 kts | 159° |
| 2026-05-05 10:38 | 36.48692 | 24.86762 | 24190 ft | 480 kts | 159° |
| 2026-05-05 10:38 | 36.45607 | 24.88339 | 23276 ft | 479 kts | 158° |
| 2026-05-05 10:38 | 36.42552 | 24.89904 | 22116 ft | 484 kts | 158° |
| 2026-05-05 10:38 | 36.39437 | 24.91498 | 21193 ft | 483 kts | 158° |
| 2026-05-05 10:39 | 36.36362 | 24.93067 | 20644 ft | 472 kts | 158° |
| 2026-05-05 10:39 | 36.33348 | 24.94601 | 20049 ft | 466 kts | 158° |
| 2026-05-05 10:39 | 36.30356 | 24.96124 | 19263 ft | 464 kts | 158° |
| 2026-05-05 10:39 | 36.27385 | 24.97639 | 18475 ft | 460 kts | 158° |
| 2026-05-05 10:40 | 36.24438 | 24.99137 | 17703 ft | 456 kts | 158° |
| 2026-05-05 10:40 | 36.21515 | 25.00621 | 16896 ft | 452 kts | 158° |
| 2026-05-05 10:40 | 36.18621 | 25.02089 | 16119 ft | 448 kts | 158° |
| 2026-05-05 10:40 | 36.15785 | 25.03527 | 15365 ft | 444 kts | 158° |
| 2026-05-05 10:41 | 36.12942 | 25.04971 | 14594 ft | 440 kts | 158° |
| 2026-05-05 10:41 | 36.10118 | 25.06403 | 13814 ft | 437 kts | 157° |
| 2026-05-05 10:41 | 36.07323 | 25.07817 | 13075 ft | 433 kts | 157° |
| 2026-05-05 10:41 | 36.04545 | 25.09220 | 12303 ft | 429 kts | 157° |
| 2026-05-05 10:42 | 35.99087 | 25.11973 | 10861 ft | 417 kts | 157° |
| 2026-05-05 10:42 | 35.96443 | 25.13304 | 10501 ft | 402 kts | 157° |
| 2026-05-05 10:42 | 35.93915 | 25.14576 | 10363 ft | 383 kts | 157° |
| 2026-05-05 10:43 | 35.91540 | 25.15772 | 10238 ft | 366 kts | 157° |
| 2026-05-05 10:43 | 35.89232 | 25.16935 | 10111 ft | 351 kts | 157° |
| 2026-05-05 10:43 | 35.87015 | 25.18051 | 9971 ft | 338 kts | 157° |
| 2026-05-05 10:43 | 35.84879 | 25.19126 | 9834 ft | 326 kts | 157° |
| 2026-05-05 10:44 | 35.82816 | 25.20163 | 9705 ft | 315 kts | 157° |
| 2026-05-05 10:44 | 35.80813 | 25.21169 | 9440 ft | 309 kts | 157° |
| 2026-05-05 10:44 | 35.78815 | 25.22173 | 8999 ft | 311 kts | 157° |
| 2026-05-05 10:44 | 35.76820 | 25.23172 | 8643 ft | 309 kts | 157° |
| 2026-05-05 10:45 | 35.74865 | 25.24150 | 8323 ft | 305 kts | 157° |
| 2026-05-05 10:45 | 35.72905 | 25.25134 | 7950 ft | 304 kts | 157° |
| 2026-05-05 10:45 | 35.70949 | 25.26117 | 7598 ft | 302 kts | 157° |
| 2026-05-05 10:45 | 35.69005 | 25.27091 | 7240 ft | 300 kts | 157° |
| 2026-05-05 10:46 | 35.67081 | 25.28051 | 6908 ft | 298 kts | 157° |
| 2026-05-05 10:46 | 35.65162 | 25.29011 | 6542 ft | 297 kts | 157° |
| 2026-05-05 10:46 | 35.63255 | 25.29965 | 6210 ft | 294 kts | 157° |
| 2026-05-05 10:46 | 35.61366 | 25.30910 | 5843 ft | 293 kts | 157° |
| 2026-05-05 10:47 | 35.59481 | 25.31851 | 5491 ft | 292 kts | 158° |
| 2026-05-05 10:47 | 35.57629 | 25.32773 | 5146 ft | 290 kts | 158° |
| 2026-05-05 10:47 | 35.55771 | 25.33701 | 4818 ft | 288 kts | 158° |
| 2026-05-05 10:47 | 35.53919 | 25.34625 | 4470 ft | 286 kts | 158° |
| 2026-05-05 10:48 | 35.52077 | 25.35540 | 4109 ft | 285 kts | 159° |
| 2026-05-05 10:48 | 35.50245 | 25.36452 | 3768 ft | 284 kts | 159° |
| 2026-05-05 10:48 | 35.48393 | 25.37249 | 3404 ft | 281 kts | 171° |
| 2026-05-05 10:48 | 35.46471 | 25.37230 | 3074 ft | 273 kts | 196° |
| 2026-05-05 10:49 | 35.44726 | 25.36386 | 2731 ft | 268 kts | 209° |
| 2026-05-05 10:49 | 35.43104 | 25.35369 | 2536 ft | 261 kts | 210° |
| 2026-05-05 10:49 | 35.41514 | 25.34397 | 2431 ft | 250 kts | 208° |
| 2026-05-05 10:49 | 35.39966 | 25.33522 | 2333 ft | 240 kts | 207° |
| 2026-05-05 10:50 | 35.38484 | 25.32688 | 2240 ft | 228 kts | 208° |
| 2026-05-05 10:50 | 35.37086 | 25.31873 | 2146 ft | 217 kts | 209° |
| 2026-05-05 10:50 | 35.35757 | 25.31096 | 2061 ft | 206 kts | 209° |
| 2026-05-05 10:50 | 35.34497 | 25.30364 | 2003 ft | 194 kts | 211° |
| 2026-05-05 10:51 | 35.33514 | 25.29380 | 1983 ft | 175 kts | 241° |
| 2026-05-05 10:51 | 35.33230 | 25.28029 | 1778 ft | 160 kts | 274° |
| 2026-05-05 10:51 | 35.33347 | 25.26728 | 1528 ft | 152 kts | 279° |
| 2026-05-05 10:51 | 35.33457 | 25.25500 | 1310 ft | 139 kts | 277° |
| 2026-05-05 10:52 | 35.33535 | 25.24373 | 1085 ft | 128 kts | 277° |
| 2026-05-05 10:52 | 35.33612 | 25.23290 | 887 ft | 127 kts | 277° |
| 2026-05-05 10:52 | 35.33688 | 25.22211 | 691 ft | 127 kts | 277° |
| 2026-05-05 10:52 | 35.33761 | 25.21132 | 497 ft | 127 kts | 276° |
| 2026-05-05 10:53 | 35.33831 | 25.20059 | 306 ft | 126 kts | 276° |
| 2026-05-05 10:53 | 35.33908 | 25.18987 | 153 ft | 126 kts | 277° |
| 2026-05-05 10:53 | 35.33977 | 25.18019 | 130 ft | 90 kts | 273° |
| 2026-05-05 10:53 | 35.34016 | 25.17478 | 129 ft | 41 kts | 275° |
| 2026-05-05 10:54 | 35.34022 | 25.17176 | 129 ft | 25 kts | 245° |
| 2026-05-05 10:54 | 35.33948 | 25.17060 | 129 ft | 11 kts | 130° |
| 2026-05-05 10:54 | 35.33931 | 25.17191 | 129 ft | 21 kts | 94° |
| 2026-05-05 10:54 | 35.33913 | 25.17364 | 129 ft | 16 kts | 146° |
| 2026-05-05 10:55 | 35.33843 | 25.17339 | 129 ft | 10 kts | 282° |
| 2026-05-05 10:55 | 35.33864 | 25.17296 | 129 ft | 0 kts | 313° |